createdAt,value
2019-04-05T00:00:02.542Z,4.5
2019-04-05T00:05:02.488Z,4.5
2019-04-05T00:10:02.888Z,4.5
2019-04-05T00:15:14.573Z,4.8
2019-04-05T00:20:02.774Z,5.0
2019-04-05T00:25:03.125Z,5.0
2019-04-05T00:30:02.540Z,5.0
2019-04-05T00:35:02.878Z,4.8
2019-04-05T00:40:03.332Z,5.0
2019-04-05T00:45:02.735Z,5.0
2019-04-05T00:50:03.089Z,5.0
2019-04-05T00:55:02.498Z,5.0
2019-04-05T01:00:02.844Z,4.8
2019-04-05T01:05:03.171Z,5.0
2019-04-05T01:10:02.600Z,5.0
2019-04-05T01:15:02.978Z,5.0
2019-04-05T01:20:02.363Z,5.0
2019-04-05T01:25:02.813Z,5.0
2019-04-05T01:30:03.248Z,4.8
2019-04-05T01:35:02.673Z,4.8
2019-04-05T01:40:03.116Z,4.8
2019-04-05T01:45:02.531Z,5.0
2019-04-05T01:50:02.908Z,5.0
2019-04-05T01:55:03.356Z,5.0
2019-04-05T02:00:02.784Z,5.0
2019-04-05T02:05:03.220Z,4.8
2019-04-05T02:10:02.698Z,4.8
2019-04-05T02:15:03.048Z,5.0
2019-04-05T02:20:02.463Z,5.0
2019-04-05T02:25:02.821Z,4.8
2019-04-05T02:30:03.171Z,5.0
2019-04-05T02:35:02.523Z,4.5
2019-04-05T02:40:03.015Z,4.5
2019-04-05T02:45:02.432Z,4.5
2019-04-05T02:50:02.772Z,4.5
2019-04-05T02:55:03.126Z,4.8
2019-04-05T03:00:02.526Z,4.8
2019-04-05T03:05:02.955Z,4.5
2019-04-05T03:10:01.619Z,4.8
2019-04-05T03:15:03.032Z,4.8
2019-04-05T03:20:02.403Z,4.5
2019-04-05T03:25:02.800Z,4.5
2019-04-05T03:30:03.145Z,4.5
2019-04-05T03:35:02.716Z,4.5
2019-04-05T03:40:03.210Z,4.5
2019-04-05T03:45:02.670Z,4.5
2019-04-05T03:50:03.104Z,4.5
2019-04-05T03:55:02.528Z,4.5
2019-04-05T04:00:02.928Z,4.5
2019-04-05T04:05:03.275Z,4.5
2019-04-05T04:10:02.706Z,4.8
2019-04-05T04:15:03.139Z,4.5
2019-04-05T04:20:02.555Z,4.5
2019-04-05T04:25:02.932Z,4.5
2019-04-05T04:30:02.827Z,4.5
2019-04-05T04:35:03.168Z,4.5
2019-04-05T04:40:02.561Z,4.5
2019-04-05T04:45:12.051Z,4.3
2019-04-05T04:50:03.064Z,4.5
2019-04-05T04:55:02.479Z,4.3
2019-04-05T05:00:02.819Z,4.3
2019-04-05T05:05:03.169Z,4.0
2019-04-05T05:10:03.405Z,4.0
2019-04-05T05:15:03.025Z,3.7
2019-04-05T05:20:02.472Z,3.7
2019-04-05T05:25:02.806Z,4.0
2019-04-05T05:30:03.237Z,4.0
2019-04-05T05:35:02.733Z,4.0
2019-04-05T05:40:03.197Z,4.0
2019-04-05T05:45:02.515Z,4.0
2019-04-05T05:50:02.860Z,3.7
2019-04-05T05:55:03.300Z,3.7
2019-04-05T06:00:02.723Z,3.7
2019-04-05T06:05:03.068Z,3.7
2019-04-05T06:10:02.470Z,3.7
2019-04-05T06:15:03.022Z,3.7
2019-04-05T06:20:02.467Z,3.7
2019-04-05T06:25:02.881Z,3.7
2019-04-05T06:30:03.328Z,3.7
2019-04-05T06:35:02.784Z,4.0
2019-04-05T06:40:03.189Z,4.0
2019-04-05T06:45:02.636Z,4.0
2019-04-05T06:50:03.067Z,4.3
2019-04-05T06:55:02.502Z,4.5
2019-04-05T07:00:03.119Z,4.3
2019-04-05T07:05:02.579Z,4.0
2019-04-05T07:10:03.100Z,4.0
2019-04-05T07:15:02.540Z,4.5
2019-04-05T07:20:02.967Z,5.0
2019-04-05T07:25:02.402Z,5.8
2019-04-05T07:30:02.804Z,6.1
2019-04-05T07:35:03.153Z,7.1
2019-04-05T07:40:02.565Z,8.0
2019-04-05T07:45:02.913Z,7.9
2019-04-05T07:50:03.259Z,7.5
2019-04-05T07:55:02.671Z,7.5
2019-04-05T08:00:03.013Z,8.1
2019-04-05T08:05:02.441Z,8.0
2019-04-05T08:10:03.201Z,9.5
2019-04-05T08:15:02.703Z,9.3
2019-04-05T08:20:03.171Z,9.1
2019-04-05T08:25:02.581Z,8.6
2019-04-05T08:30:03.022Z,9.1
2019-04-05T08:35:02.437Z,9.8
2019-04-05T08:40:02.887Z,10.1
2019-04-05T08:45:03.322Z,10.0
2019-04-05T08:50:02.000Z,8.8
2019-04-05T08:55:02.366Z,9.8
2019-04-05T09:00:02.726Z,9.6
2019-04-05T09:05:03.146Z,11.1
2019-04-05T09:10:02.569Z,10.8
2019-04-05T09:15:03.002Z,10.8
2019-04-05T09:20:02.427Z,11.1
2019-04-05T09:25:02.869Z,10.1
2019-04-05T09:30:03.217Z,10.1
2019-04-05T09:35:02.568Z,10.1
2019-04-05T09:40:03.065Z,10.3
2019-04-05T09:45:02.492Z,11.6
2019-04-05T09:50:02.838Z,10.3
2019-04-05T09:55:03.180Z,12.1
2019-04-05T10:00:02.586Z,12.1
2019-04-05T10:05:02.932Z,11.8
2019-04-05T10:10:02.359Z,12.1
2019-04-05T10:15:02.687Z,10.1
2019-04-05T10:20:03.129Z,11.1
2019-04-05T10:25:02.553Z,10.6
2019-04-05T10:30:02.899Z,9.6
2019-04-05T10:35:03.238Z,10.1
2019-04-05T10:40:02.660Z,11.6
2019-04-05T10:45:03.003Z,11.3
2019-04-05T10:50:03.588Z,12.1
2019-04-05T10:55:03.166Z,12.3
2019-04-05T11:00:02.583Z,10.5
2019-04-05T11:05:02.959Z,11.3
2019-04-05T11:10:02.484Z,10.1
2019-04-05T11:15:02.887Z,10.1
2019-04-05T11:20:06.959Z,11.0
2019-04-05T11:25:03.262Z,10.6
2019-04-05T11:30:01.785Z,10.5
2019-04-05T11:35:03.121Z,10.1
2019-04-05T11:40:02.543Z,10.8
2019-04-05T11:45:02.884Z,11.3
2019-04-05T11:50:03.206Z,10.8
2019-04-05T11:55:04.607Z,11.6
2019-04-05T12:00:03.190Z,10.6
2019-04-05T12:05:02.614Z,11.3
2019-04-05T12:10:03.047Z,10.8
2019-04-05T12:15:02.463Z,11.3
2019-04-05T12:20:03.539Z,11.6
2019-04-05T12:25:03.617Z,12.1
2019-04-05T12:30:03.094Z,11.8
2019-04-05T12:35:02.602Z,12.0
2019-04-05T12:40:05.103Z,12.1
2019-04-05T12:45:02.688Z,11.8
2019-04-05T12:50:03.019Z,11.8
2019-04-05T12:55:02.431Z,11.3
2019-04-05T13:00:02.789Z,10.6
2019-04-05T13:05:03.221Z,11.6
2019-04-05T13:10:02.664Z,10.5
2019-04-05T13:15:12.247Z,10.8
2019-04-05T13:20:02.284Z,11.8
2019-04-05T13:25:02.744Z,12.5
2019-04-05T13:30:03.170Z,11.6
2019-04-05T13:35:02.607Z,12.1
2019-04-05T13:40:02.993Z,12.3
2019-04-05T13:45:02.352Z,12.1
2019-04-05T13:50:02.699Z,11.1
2019-04-05T13:55:03.038Z,11.0
2019-04-05T14:00:02.554Z,11.3
2019-04-05T14:05:03.120Z,11.0
2019-04-05T14:10:02.554Z,11.0
2019-04-05T14:15:02.944Z,11.3
2019-04-05T14:20:02.498Z,10.8
2019-04-05T14:25:02.921Z,11.6
2019-04-05T14:30:03.322Z,12.0
2019-04-05T14:35:02.691Z,11.3
2019-04-05T14:40:03.128Z,11.3
2019-04-05T14:45:02.548Z,11.3
2019-04-05T14:50:02.994Z,11.1
2019-04-05T14:55:02.415Z,10.8
2019-04-05T15:00:02.865Z,10.6
2019-04-05T15:05:03.307Z,10.8
2019-04-05T15:10:03.905Z,11.1
2019-04-05T15:15:02.313Z,10.6
2019-04-05T15:20:04.629Z,10.3
2019-04-05T15:25:03.447Z,10.3
2019-04-05T15:30:02.952Z,10.3
2019-04-05T15:35:03.315Z,10.5
2019-04-05T15:40:02.713Z,10.6
2019-04-05T15:45:03.060Z,10.8
2019-04-05T15:50:02.475Z,10.5
2019-04-05T15:55:03.721Z,10.3
2019-04-05T16:00:04.748Z,10.1
2019-04-05T16:05:02.983Z,10.0
2019-04-05T16:10:02.440Z,10.1
2019-04-05T16:15:02.889Z,10.0
2019-04-05T16:20:03.447Z,9.6
2019-04-05T16:25:03.860Z,10.0
2019-04-05T16:30:02.366Z,9.8
2019-04-05T16:35:02.820Z,9.8
2019-04-05T16:40:03.337Z,9.3
2019-04-05T16:45:02.686Z,9.6
2019-04-05T16:50:03.089Z,9.5
2019-04-05T16:55:01.769Z,9.3
2019-04-05T17:00:03.150Z,9.3
2019-04-05T17:05:02.557Z,9.5
2019-04-05T17:10:02.953Z,9.6
2019-04-05T17:15:03.279Z,9.6
2019-04-05T17:20:02.676Z,9.3
2019-04-05T17:25:03.315Z,9.1
2019-04-05T17:30:02.643Z,9.1
2019-04-05T17:35:03.081Z,9.0
2019-04-05T17:40:02.497Z,9.1
2019-04-05T17:45:02.864Z,9.3
2019-04-05T17:50:03.193Z,8.8
2019-04-05T17:55:02.638Z,9.0
2019-04-05T18:00:03.039Z,8.8
2019-04-05T18:05:02.367Z,8.8
2019-04-05T18:10:02.753Z,8.6
2019-04-05T18:15:03.144Z,8.6
2019-04-05T18:20:02.575Z,8.6
2019-04-05T18:25:02.919Z,8.6
2019-04-05T18:30:03.350Z,8.8
2019-04-05T18:35:02.765Z,8.8
2019-04-05T18:40:03.154Z,8.6
2019-04-05T18:45:02.478Z,8.6
2019-04-05T18:50:03.495Z,8.6
2019-04-05T18:55:03.008Z,8.6
2019-04-05T19:00:02.338Z,8.5
2019-04-05T19:05:02.776Z,8.3
2019-04-05T19:10:03.318Z,8.5
2019-04-05T19:15:02.730Z,8.3
2019-04-05T19:20:03.085Z,8.3
2019-04-05T19:25:04.812Z,8.1
2019-04-05T19:50:02.765Z,8.3
2019-04-05T19:55:03.152Z,8.1
2019-04-05T20:00:02.522Z,8.0
2019-04-05T20:05:02.859Z,7.9
2019-04-05T20:10:03.344Z,7.6
2019-04-05T20:15:02.683Z,7.6
2019-04-05T20:20:03.102Z,7.9
2019-04-05T20:25:02.479Z,7.6
2019-04-05T20:30:02.898Z,7.6
2019-04-05T20:35:03.307Z,7.6
2019-04-05T20:40:02.790Z,7.5
2019-04-05T20:45:03.169Z,7.6
2019-04-05T20:50:02.538Z,7.6
2019-04-05T20:55:02.923Z,7.6
2019-04-05T21:00:03.276Z,7.6
2019-04-05T21:05:02.655Z,7.6
2019-04-05T21:10:03.082Z,7.6
2019-04-05T21:15:02.507Z,7.9
2019-04-05T21:20:02.893Z,7.6
2019-04-05T21:25:03.337Z,7.9
2019-04-05T21:30:02.662Z,7.9
2019-04-05T21:35:03.066Z,7.9
2019-04-05T21:40:02.511Z,7.6
2019-04-05T21:45:02.918Z,7.9
2019-04-05T21:50:03.401Z,7.9
2019-04-05T21:55:02.809Z,7.6
2019-04-05T22:00:03.574Z,7.6
2019-04-05T22:05:03.020Z,7.6
2019-04-05T22:10:02.545Z,7.6
2019-04-05T22:15:03.007Z,7.9
2019-04-05T22:20:02.525Z,7.9
2019-04-05T22:25:02.968Z,8.0
2019-04-05T22:30:02.521Z,7.9
2019-04-05T22:35:03.007Z,7.9
2019-04-05T22:40:02.588Z,8.0
2019-04-05T22:45:03.093Z,8.0
2019-04-05T22:50:02.623Z,8.0
2019-04-05T22:55:11.068Z,7.9
2019-04-05T23:00:02.782Z,7.9
2019-04-05T23:05:02.627Z,8.0
2019-04-05T23:10:03.135Z,7.9
2019-04-05T23:15:02.589Z,7.6
2019-04-05T23:20:03.030Z,7.5
2019-04-05T23:25:02.552Z,7.5
2019-04-05T23:30:02.959Z,7.6
2019-04-05T23:35:02.404Z,8.0
2019-04-05T23:40:02.929Z,7.9
2019-04-05T23:45:03.373Z,7.6
2019-04-05T23:50:02.812Z,7.6
2019-04-05T23:55:03.348Z,7.9
